sensor_id;sensor_type;location;lat;lon;timestamp;P1;durP1;ratioP1;P2;durP2;ratioP2
12838;SDS011;6486;51.034;5.262;2022-08-19T00:01:40;5.80;;;4.27;;
12838;SDS011;6486;51.034;5.262;2022-08-19T00:04:09;4.63;;;3.17;;
12838;SDS011;6486;51.034;5.262;2022-08-19T00:06:36;8.93;;;3.53;;
12838;SDS011;6486;51.034;5.262;2022-08-19T00:09:04;4.13;;;3.30;;
12838;SDS011;6486;51.034;5.262;2022-08-19T00:11:32;4.70;;;3.37;;
12838;SDS011;6486;51.034;5.262;2022-08-19T00:13:59;5.13;;;3.37;;
12838;SDS011;6486;51.034;5.262;2022-08-19T00:16:25;4.90;;;3.70;;
12838;SDS011;6486;51.034;5.262;2022-08-19T00:18:51;7.70;;;3.90;;
12838;SDS011;6486;51.034;5.262;2022-08-19T00:21:17;4.83;;;3.63;;
12838;SDS011;6486;51.034;5.262;2022-08-19T00:23:43;4.97;;;3.77;;
12838;SDS011;6486;51.034;5.262;2022-08-19T00:26:09;5.50;;;3.80;;
12838;SDS011;6486;51.034;5.262;2022-08-19T00:28:36;4.20;;;3.07;;
12838;SDS011;6486;51.034;5.262;2022-08-19T00:31:03;5.73;;;4.20;;
12838;SDS011;6486;51.034;5.262;2022-08-19T00:33:30;6.37;;;4.57;;
12838;SDS011;6486;51.034;5.262;2022-08-19T00:35:57;7.87;;;4.93;;
12838;SDS011;6486;51.034;5.262;2022-08-19T00:38:29;6.43;;;4.60;;
12838;SDS011;6486;51.034;5.262;2022-08-19T00:40:55;6.27;;;4.07;;
12838;SDS011;6486;51.034;5.262;2022-08-19T00:43:22;5.93;;;4.13;;
12838;SDS011;6486;51.034;5.262;2022-08-19T00:45:50;7.27;;;4.43;;
12838;SDS011;6486;51.034;5.262;2022-08-19T00:48:17;8.07;;;5.53;;
12838;SDS011;6486;51.034;5.262;2022-08-19T00:50:44;6.90;;;4.27;;
12838;SDS011;6486;51.034;5.262;2022-08-19T00:53:12;8.47;;;4.80;;
12838;SDS011;6486;51.034;5.262;2022-08-19T00:55:40;5.47;;;3.80;;
12838;SDS011;6486;51.034;5.262;2022-08-19T00:58:11;5.93;;;4.43;;
12838;SDS011;6486;51.034;5.262;2022-08-19T01:00:39;6.53;;;4.30;;
12838;SDS011;6486;51.034;5.262;2022-08-19T01:03:05;6.57;;;3.73;;
12838;SDS011;6486;51.034;5.262;2022-08-19T01:05:33;5.43;;;4.40;;
12838;SDS011;6486;51.034;5.262;2022-08-19T01:08:00;6.90;;;4.50;;
12838;SDS011;6486;51.034;5.262;2022-08-19T01:10:29;5.17;;;3.37;;
12838;SDS011;6486;51.034;5.262;2022-08-19T01:12:59;5.97;;;4.07;;
12838;SDS011;6486;51.034;5.262;2022-08-19T01:15:27;4.97;;;2.93;;
12838;SDS011;6486;51.034;5.262;2022-08-19T01:17:56;7.57;;;4.00;;
12838;SDS011;6486;51.034;5.262;2022-08-19T01:20:25;5.87;;;4.20;;
12838;SDS011;6486;51.034;5.262;2022-08-19T01:22:52;6.47;;;4.47;;
12838;SDS011;6486;51.034;5.262;2022-08-19T01:25:22;7.87;;;4.40;;
12838;SDS011;6486;51.034;5.262;2022-08-19T01:27:54;9.83;;;4.40;;
12838;SDS011;6486;51.034;5.262;2022-08-19T01:30:25;6.13;;;4.30;;
12838;SDS011;6486;51.034;5.262;2022-08-19T01:32:53;7.27;;;4.10;;
12838;SDS011;6486;51.034;5.262;2022-08-19T01:35:20;7.13;;;4.57;;
12838;SDS011;6486;51.034;5.262;2022-08-19T01:37:52;6.17;;;3.90;;
12838;SDS011;6486;51.034;5.262;2022-08-19T01:40:21;5.90;;;4.10;;
12838;SDS011;6486;51.034;5.262;2022-08-19T01:42:49;6.63;;;4.23;;
12838;SDS011;6486;51.034;5.262;2022-08-19T01:45:16;6.50;;;3.53;;
12838;SDS011;6486;51.034;5.262;2022-08-19T01:47:42;7.30;;;4.10;;
12838;SDS011;6486;51.034;5.262;2022-08-19T01:50:09;5.47;;;4.10;;
12838;SDS011;6486;51.034;5.262;2022-08-19T01:52:36;6.80;;;4.53;;
12838;SDS011;6486;51.034;5.262;2022-08-19T01:55:03;5.33;;;3.57;;
12838;SDS011;6486;51.034;5.262;2022-08-19T01:57:30;10.27;;;5.03;;
12838;SDS011;6486;51.034;5.262;2022-08-19T01:59:56;7.63;;;4.50;;
12838;SDS011;6486;51.034;5.262;2022-08-19T02:02:22;6.93;;;3.87;;
12838;SDS011;6486;51.034;5.262;2022-08-19T02:04:48;6.00;;;3.93;;
12838;SDS011;6486;51.034;5.262;2022-08-19T02:07:14;7.83;;;4.50;;
12838;SDS011;6486;51.034;5.262;2022-08-19T02:09:39;5.73;;;3.77;;
12838;SDS011;6486;51.034;5.262;2022-08-19T02:12:06;6.57;;;4.07;;
12838;SDS011;6486;51.034;5.262;2022-08-19T02:14:34;6.00;;;4.07;;
12838;SDS011;6486;51.034;5.262;2022-08-19T02:17:00;7.63;;;4.97;;
12838;SDS011;6486;51.034;5.262;2022-08-19T02:19:26;8.63;;;5.33;;
12838;SDS011;6486;51.034;5.262;2022-08-19T02:21:52;7.33;;;4.30;;
12838;SDS011;6486;51.034;5.262;2022-08-19T02:24:18;8.57;;;5.07;;
12838;SDS011;6486;51.034;5.262;2022-08-19T02:26:44;8.83;;;4.70;;
12838;SDS011;6486;51.034;5.262;2022-08-19T02:29:09;6.40;;;4.97;;
12838;SDS011;6486;51.034;5.262;2022-08-19T02:31:35;5.67;;;4.07;;
12838;SDS011;6486;51.034;5.262;2022-08-19T02:34:01;12.87;;;4.67;;
12838;SDS011;6486;51.034;5.262;2022-08-19T02:36:27;10.20;;;4.63;;
12838;SDS011;6486;51.034;5.262;2022-08-19T02:38:53;9.37;;;5.23;;
12838;SDS011;6486;51.034;5.262;2022-08-19T02:41:20;13.13;;;6.17;;
12838;SDS011;6486;51.034;5.262;2022-08-19T02:43:48;10.07;;;6.53;;
12838;SDS011;6486;51.034;5.262;2022-08-19T02:46:25;8.93;;;4.73;;
12838;SDS011;6486;51.034;5.262;2022-08-19T02:48:54;13.23;;;5.47;;
12838;SDS011;6486;51.034;5.262;2022-08-19T02:51:24;11.20;;;4.93;;
12838;SDS011;6486;51.034;5.262;2022-08-19T02:53:52;12.10;;;5.17;;
12838;SDS011;6486;51.034;5.262;2022-08-19T02:56:18;10.23;;;5.10;;
12838;SDS011;6486;51.034;5.262;2022-08-19T02:58:44;10.53;;;4.83;;
12838;SDS011;6486;51.034;5.262;2022-08-19T03:01:11;8.23;;;6.07;;
12838;SDS011;6486;51.034;5.262;2022-08-19T03:03:44;11.27;;;5.60;;
12838;SDS011;6486;51.034;5.262;2022-08-19T03:06:11;13.07;;;5.97;;
12838;SDS011;6486;51.034;5.262;2022-08-19T03:08:39;10.70;;;5.53;;
12838;SDS011;6486;51.034;5.262;2022-08-19T03:11:12;16.60;;;5.70;;
12838;SDS011;6486;51.034;5.262;2022-08-19T03:13:39;12.90;;;6.13;;
12838;SDS011;6486;51.034;5.262;2022-08-19T03:16:05;12.70;;;5.87;;
12838;SDS011;6486;51.034;5.262;2022-08-19T03:18:31;14.50;;;6.47;;
12838;SDS011;6486;51.034;5.262;2022-08-19T03:20:56;13.73;;;6.63;;
12838;SDS011;6486;51.034;5.262;2022-08-19T03:23:22;13.27;;;6.30;;
12838;SDS011;6486;51.034;5.262;2022-08-19T03:25:49;9.90;;;5.20;;
12838;SDS011;6486;51.034;5.262;2022-08-19T03:28:16;10.27;;;5.50;;
12838;SDS011;6486;51.034;5.262;2022-08-19T03:30:43;15.90;;;5.83;;
12838;SDS011;6486;51.034;5.262;2022-08-19T03:33:24;11.27;;;5.80;;
12838;SDS011;6486;51.034;5.262;2022-08-19T03:38:50;13.00;;;6.03;;
12838;SDS011;6486;51.034;5.262;2022-08-19T03:41:23;13.90;;;6.40;;
12838;SDS011;6486;51.034;5.262;2022-08-19T03:43:51;16.70;;;6.33;;
12838;SDS011;6486;51.034;5.262;2022-08-19T03:46:20;13.13;;;6.47;;
12838;SDS011;6486;51.034;5.262;2022-08-19T03:48:51;14.00;;;5.73;;
12838;SDS011;6486;51.034;5.262;2022-08-19T03:51:20;12.37;;;7.20;;
12838;SDS011;6486;51.034;5.262;2022-08-19T03:53:51;11.43;;;5.73;;
12838;SDS011;6486;51.034;5.262;2022-08-19T03:56:18;11.50;;;5.40;;
12838;SDS011;6486;51.034;5.262;2022-08-19T03:58:44;13.07;;;6.90;;
12838;SDS011;6486;51.034;5.262;2022-08-19T04:01:11;18.23;;;7.37;;
12838;SDS011;6486;51.034;5.262;2022-08-19T04:03:42;11.17;;;5.70;;
12838;SDS011;6486;51.034;5.262;2022-08-19T04:08:43;10.83;;;5.50;;
12838;SDS011;6486;51.034;5.262;2022-08-19T04:11:11;10.97;;;5.90;;
12838;SDS011;6486;51.034;5.262;2022-08-19T04:13:39;10.70;;;5.60;;
12838;SDS011;6486;51.034;5.262;2022-08-19T04:16:06;16.87;;;6.73;;
12838;SDS011;6486;51.034;5.262;2022-08-19T04:18:35;10.60;;;6.53;;
12838;SDS011;6486;51.034;5.262;2022-08-19T04:21:01;9.70;;;5.87;;
12838;SDS011;6486;51.034;5.262;2022-08-19T04:23:28;16.33;;;5.83;;
12838;SDS011;6486;51.034;5.262;2022-08-19T04:25:54;12.13;;;5.57;;
12838;SDS011;6486;51.034;5.262;2022-08-19T04:28:20;10.93;;;5.00;;
12838;SDS011;6486;51.034;5.262;2022-08-19T04:30:47;15.53;;;6.50;;
12838;SDS011;6486;51.034;5.262;2022-08-19T04:33:16;13.37;;;6.40;;
12838;SDS011;6486;51.034;5.262;2022-08-19T04:35:46;11.40;;;5.00;;
12838;SDS011;6486;51.034;5.262;2022-08-19T04:38:14;9.23;;;4.40;;
12838;SDS011;6486;51.034;5.262;2022-08-19T04:40:45;12.33;;;6.50;;
12838;SDS011;6486;51.034;5.262;2022-08-19T04:43:31;10.50;;;5.10;;
12838;SDS011;6486;51.034;5.262;2022-08-19T04:45:58;12.27;;;5.93;;
12838;SDS011;6486;51.034;5.262;2022-08-19T04:48:31;12.70;;;5.60;;
12838;SDS011;6486;51.034;5.262;2022-08-19T04:50:57;16.67;;;6.00;;
12838;SDS011;6486;51.034;5.262;2022-08-19T04:53:30;8.33;;;4.70;;
12838;SDS011;6486;51.034;5.262;2022-08-19T04:55:58;14.93;;;4.97;;
12838;SDS011;6486;51.034;5.262;2022-08-19T04:58:26;15.03;;;6.97;;
12838;SDS011;6486;51.034;5.262;2022-08-19T05:00:52;13.17;;;5.60;;
12838;SDS011;6486;51.034;5.262;2022-08-19T05:03:19;11.73;;;5.47;;
12838;SDS011;6486;51.034;5.262;2022-08-19T05:05:45;12.13;;;6.63;;
12838;SDS011;6486;51.034;5.262;2022-08-19T05:08:16;8.67;;;4.67;;
12838;SDS011;6486;51.034;5.262;2022-08-19T05:10:45;11.70;;;5.37;;
12838;SDS011;6486;51.034;5.262;2022-08-19T05:13:12;12.80;;;5.37;;
12838;SDS011;6486;51.034;5.262;2022-08-19T05:15:38;12.30;;;5.40;;
12838;SDS011;6486;51.034;5.262;2022-08-19T05:18:03;15.00;;;7.67;;
12838;SDS011;6486;51.034;5.262;2022-08-19T05:20:48;10.53;;;5.90;;
12838;SDS011;6486;51.034;5.262;2022-08-19T05:23:32;11.73;;;5.77;;
12838;SDS011;6486;51.034;5.262;2022-08-19T05:25:58;16.07;;;6.67;;
12838;SDS011;6486;51.034;5.262;2022-08-19T05:28:23;16.30;;;7.30;;
12838;SDS011;6486;51.034;5.262;2022-08-19T05:30:50;13.03;;;5.83;;
12838;SDS011;6486;51.034;5.262;2022-08-19T05:33:16;13.30;;;5.97;;
12838;SDS011;6486;51.034;5.262;2022-08-19T05:35:43;14.60;;;6.30;;
12838;SDS011;6486;51.034;5.262;2022-08-19T05:38:09;12.03;;;6.33;;
12838;SDS011;6486;51.034;5.262;2022-08-19T05:40:36;10.27;;;6.20;;
12838;SDS011;6486;51.034;5.262;2022-08-19T05:43:04;13.30;;;5.93;;
12838;SDS011;6486;51.034;5.262;2022-08-19T05:45:31;14.97;;;5.67;;
12838;SDS011;6486;51.034;5.262;2022-08-19T05:47:57;13.77;;;5.60;;
12838;SDS011;6486;51.034;5.262;2022-08-19T05:50:23;14.97;;;6.33;;
12838;SDS011;6486;51.034;5.262;2022-08-19T05:52:51;10.47;;;4.67;;
12838;SDS011;6486;51.034;5.262;2022-08-19T05:55:17;12.07;;;6.10;;
12838;SDS011;6486;51.034;5.262;2022-08-19T05:57:45;18.13;;;5.90;;
12838;SDS011;6486;51.034;5.262;2022-08-19T06:00:11;7.80;;;4.83;;
12838;SDS011;6486;51.034;5.262;2022-08-19T06:02:38;10.93;;;5.27;;
12838;SDS011;6486;51.034;5.262;2022-08-19T06:05:05;10.37;;;5.00;;
12838;SDS011;6486;51.034;5.262;2022-08-19T06:07:34;8.70;;;4.53;;
12838;SDS011;6486;51.034;5.262;2022-08-19T06:10:02;11.67;;;5.07;;
12838;SDS011;6486;51.034;5.262;2022-08-19T06:12:32;8.90;;;4.87;;
12838;SDS011;6486;51.034;5.262;2022-08-19T06:15:01;7.07;;;4.93;;
12838;SDS011;6486;51.034;5.262;2022-08-19T06:17:29;10.57;;;4.43;;
12838;SDS011;6486;51.034;5.262;2022-08-19T06:19:55;10.97;;;4.73;;
12838;SDS011;6486;51.034;5.262;2022-08-19T06:22:21;8.07;;;4.40;;
12838;SDS011;6486;51.034;5.262;2022-08-19T06:24:47;9.93;;;3.80;;
12838;SDS011;6486;51.034;5.262;2022-08-19T06:27:13;7.60;;;4.23;;
12838;SDS011;6486;51.034;5.262;2022-08-19T06:29:38;14.77;;;4.90;;
12838;SDS011;6486;51.034;5.262;2022-08-19T06:32:04;11.73;;;5.30;;
12838;SDS011;6486;51.034;5.262;2022-08-19T06:34:32;8.83;;;4.33;;
12838;SDS011;6486;51.034;5.262;2022-08-19T06:36:59;12.10;;;5.53;;
12838;SDS011;6486;51.034;5.262;2022-08-19T06:39:28;10.37;;;4.93;;
12838;SDS011;6486;51.034;5.262;2022-08-19T06:41:57;6.13;;;4.07;;
12838;SDS011;6486;51.034;5.262;2022-08-19T06:44:26;12.13;;;5.67;;
12838;SDS011;6486;51.034;5.262;2022-08-19T06:46:54;12.00;;;5.50;;
12838;SDS011;6486;51.034;5.262;2022-08-19T06:49:20;9.63;;;4.03;;
12838;SDS011;6486;51.034;5.262;2022-08-19T06:51:47;6.77;;;3.33;;
12838;SDS011;6486;51.034;5.262;2022-08-19T06:54:14;16.97;;;5.23;;
12838;SDS011;6486;51.034;5.262;2022-08-19T06:56:41;7.40;;;4.17;;
12838;SDS011;6486;51.034;5.262;2022-08-19T06:59:09;7.93;;;4.73;;
12838;SDS011;6486;51.034;5.262;2022-08-19T07:01:48;12.10;;;4.67;;
12838;SDS011;6486;51.034;5.262;2022-08-19T07:04:17;10.77;;;4.67;;
12838;SDS011;6486;51.034;5.262;2022-08-19T07:06:46;9.50;;;3.80;;
12838;SDS011;6486;51.034;5.262;2022-08-19T07:09:13;8.57;;;4.23;;
12838;SDS011;6486;51.034;5.262;2022-08-19T07:11:44;5.97;;;3.80;;
12838;SDS011;6486;51.034;5.262;2022-08-19T07:14:12;9.70;;;4.60;;
12838;SDS011;6486;51.034;5.262;2022-08-19T07:16:39;8.27;;;4.77;;
12838;SDS011;6486;51.034;5.262;2022-08-19T07:19:05;9.10;;;4.47;;
12838;SDS011;6486;51.034;5.262;2022-08-19T07:21:30;7.47;;;3.83;;
12838;SDS011;6486;51.034;5.262;2022-08-19T07:23:56;10.70;;;5.20;;
12838;SDS011;6486;51.034;5.262;2022-08-19T07:26:25;16.60;;;4.77;;
12838;SDS011;6486;51.034;5.262;2022-08-19T07:28:53;10.70;;;4.20;;
12838;SDS011;6486;51.034;5.262;2022-08-19T07:31:21;7.80;;;4.20;;
12838;SDS011;6486;51.034;5.262;2022-08-19T07:33:48;11.43;;;4.93;;
12838;SDS011;6486;51.034;5.262;2022-08-19T07:36:16;11.43;;;5.13;;
12838;SDS011;6486;51.034;5.262;2022-08-19T07:38:45;12.63;;;5.07;;
12838;SDS011;6486;51.034;5.262;2022-08-19T07:41:14;9.23;;;4.30;;
12838;SDS011;6486;51.034;5.262;2022-08-19T07:43:41;7.47;;;4.30;;
12838;SDS011;6486;51.034;5.262;2022-08-19T07:46:09;8.30;;;5.20;;
12838;SDS011;6486;51.034;5.262;2022-08-19T07:48:36;7.20;;;4.40;;
12838;SDS011;6486;51.034;5.262;2022-08-19T07:51:04;8.40;;;3.40;;
12838;SDS011;6486;51.034;5.262;2022-08-19T07:53:32;7.03;;;3.87;;
12838;SDS011;6486;51.034;5.262;2022-08-19T07:55:58;9.23;;;3.67;;
12838;SDS011;6486;51.034;5.262;2022-08-19T07:58:26;4.90;;;2.90;;
12838;SDS011;6486;51.034;5.262;2022-08-19T08:00:53;7.47;;;3.00;;
12838;SDS011;6486;51.034;5.262;2022-08-19T08:03:20;8.03;;;4.20;;
12838;SDS011;6486;51.034;5.262;2022-08-19T08:06:10;6.90;;;3.77;;
12838;SDS011;6486;51.034;5.262;2022-08-19T08:08:55;4.20;;;2.93;;
12838;SDS011;6486;51.034;5.262;2022-08-19T08:11:36;4.83;;;3.07;;
12838;SDS011;6486;51.034;5.262;2022-08-19T08:14:14;5.20;;;2.40;;
12838;SDS011;6486;51.034;5.262;2022-08-19T08:16:42;8.30;;;3.00;;
12838;SDS011;6486;51.034;5.262;2022-08-19T08:19:10;8.80;;;3.20;;
12838;SDS011;6486;51.034;5.262;2022-08-19T08:21:36;4.17;;;2.67;;
12838;SDS011;6486;51.034;5.262;2022-08-19T08:24:02;7.30;;;3.30;;
12838;SDS011;6486;51.034;5.262;2022-08-19T08:26:28;3.87;;;2.13;;
12838;SDS011;6486;51.034;5.262;2022-08-19T08:28:53;5.63;;;3.37;;
12838;SDS011;6486;51.034;5.262;2022-08-19T08:31:19;3.63;;;2.57;;
12838;SDS011;6486;51.034;5.262;2022-08-19T08:33:45;5.00;;;2.87;;
12838;SDS011;6486;51.034;5.262;2022-08-19T08:36:12;6.00;;;2.50;;
12838;SDS011;6486;51.034;5.262;2022-08-19T08:38:41;4.80;;;2.70;;
12838;SDS011;6486;51.034;5.262;2022-08-19T08:43:59;6.00;;;2.87;;
12838;SDS011;6486;51.034;5.262;2022-08-19T08:54:35;6.10;;;2.60;;
12838;SDS011;6486;51.034;5.262;2022-08-19T08:57:07;3.87;;;2.57;;
12838;SDS011;6486;51.034;5.262;2022-08-19T08:59:41;6.00;;;2.50;;
12838;SDS011;6486;51.034;5.262;2022-08-19T09:02:08;4.97;;;2.93;;
12838;SDS011;6486;51.034;5.262;2022-08-19T09:04:37;4.60;;;2.13;;
12838;SDS011;6486;51.034;5.262;2022-08-19T09:09:49;2.30;;;2.10;;
12838;SDS011;6486;51.034;5.262;2022-08-19T09:12:20;2.73;;;1.77;;
12838;SDS011;6486;51.034;5.262;2022-08-19T09:15:03;3.23;;;2.13;;
12838;SDS011;6486;51.034;5.262;2022-08-19T09:17:32;2.60;;;2.17;;
12838;SDS011;6486;51.034;5.262;2022-08-19T09:20:00;4.13;;;2.20;;
12838;SDS011;6486;51.034;5.262;2022-08-19T09:22:33;2.90;;;1.43;;
12838;SDS011;6486;51.034;5.262;2022-08-19T09:25:00;1.40;;;1.30;;
12838;SDS011;6486;51.034;5.262;2022-08-19T09:27:26;4.13;;;1.93;;
12838;SDS011;6486;51.034;5.262;2022-08-19T09:29:53;3.73;;;2.27;;
12838;SDS011;6486;51.034;5.262;2022-08-19T09:32:20;2.10;;;1.33;;
12838;SDS011;6486;51.034;5.262;2022-08-19T09:34:47;3.57;;;2.07;;
12838;SDS011;6486;51.034;5.262;2022-08-19T09:37:12;2.77;;;2.20;;
12838;SDS011;6486;51.034;5.262;2022-08-19T09:39:39;3.13;;;2.10;;
12838;SDS011;6486;51.034;5.262;2022-08-19T09:42:09;2.17;;;1.80;;
12838;SDS011;6486;51.034;5.262;2022-08-19T09:44:40;2.83;;;2.13;;
12838;SDS011;6486;51.034;5.262;2022-08-19T09:47:08;2.70;;;1.77;;
12838;SDS011;6486;51.034;5.262;2022-08-19T09:49:34;2.50;;;1.53;;
12838;SDS011;6486;51.034;5.262;2022-08-19T09:52:00;4.00;;;1.33;;
12838;SDS011;6486;51.034;5.262;2022-08-19T09:54:26;1.83;;;1.23;;
12838;SDS011;6486;51.034;5.262;2022-08-19T09:56:53;1.83;;;1.60;;
12838;SDS011;6486;51.034;5.262;2022-08-19T09:59:19;2.07;;;1.40;;
12838;SDS011;6486;51.034;5.262;2022-08-19T10:01:45;1.27;;;1.00;;
12838;SDS011;6486;51.034;5.262;2022-08-19T10:04:11;2.77;;;1.80;;
12838;SDS011;6486;51.034;5.262;2022-08-19T10:06:37;5.50;;;1.70;;
12838;SDS011;6486;51.034;5.262;2022-08-19T10:09:07;1.63;;;1.50;;
12838;SDS011;6486;51.034;5.262;2022-08-19T10:11:34;1.37;;;1.10;;
12838;SDS011;6486;51.034;5.262;2022-08-19T10:14:04;2.83;;;1.87;;
12838;SDS011;6486;51.034;5.262;2022-08-19T10:16:33;1.67;;;1.57;;
12838;SDS011;6486;51.034;5.262;2022-08-19T10:19:00;1.27;;;1.00;;
12838;SDS011;6486;51.034;5.262;2022-08-19T10:21:27;2.07;;;1.47;;
12838;SDS011;6486;51.034;5.262;2022-08-19T10:23:56;3.07;;;1.57;;
12838;SDS011;6486;51.034;5.262;2022-08-19T10:26:27;2.10;;;1.70;;
12838;SDS011;6486;51.034;5.262;2022-08-19T10:28:55;2.23;;;1.23;;
12838;SDS011;6486;51.034;5.262;2022-08-19T10:31:23;2.13;;;1.40;;
12838;SDS011;6486;51.034;5.262;2022-08-19T10:33:52;2.73;;;1.50;;
12838;SDS011;6486;51.034;5.262;2022-08-19T10:36:23;4.77;;;1.40;;
12838;SDS011;6486;51.034;5.262;2022-08-19T10:38:55;1.53;;;1.40;;
12838;SDS011;6486;51.034;5.262;2022-08-19T10:41:25;1.30;;;1.20;;
12838;SDS011;6486;51.034;5.262;2022-08-19T10:43:56;4.37;;;1.07;;
12838;SDS011;6486;51.034;5.262;2022-08-19T10:46:25;3.77;;;1.50;;
12838;SDS011;6486;51.034;5.262;2022-08-19T10:48:52;1.40;;;1.03;;
12838;SDS011;6486;51.034;5.262;2022-08-19T10:51:19;0.83;;;0.67;;
12838;SDS011;6486;51.034;5.262;2022-08-19T10:54:03;1.23;;;1.13;;
12838;SDS011;6486;51.034;5.262;2022-08-19T10:56:30;1.47;;;1.37;;
12838;SDS011;6486;51.034;5.262;2022-08-19T10:59:15;1.10;;;1.00;;
12838;SDS011;6486;51.034;5.262;2022-08-19T11:01:43;1.37;;;1.17;;
12838;SDS011;6486;51.034;5.262;2022-08-19T11:04:09;2.87;;;1.20;;
12838;SDS011;6486;51.034;5.262;2022-08-19T11:06:39;1.73;;;1.30;;
12838;SDS011;6486;51.034;5.262;2022-08-19T11:09:08;1.77;;;1.43;;
12838;SDS011;6486;51.034;5.262;2022-08-19T11:11:35;1.10;;;0.97;;
12838;SDS011;6486;51.034;5.262;2022-08-19T11:14:06;2.27;;;1.33;;
12838;SDS011;6486;51.034;5.262;2022-08-19T11:16:33;1.00;;;0.90;;
12838;SDS011;6486;51.034;5.262;2022-08-19T11:18:58;3.70;;;1.23;;
12838;SDS011;6486;51.034;5.262;2022-08-19T11:21:31;3.27;;;0.87;;
12838;SDS011;6486;51.034;5.262;2022-08-19T11:24:00;2.23;;;1.20;;
12838;SDS011;6486;51.034;5.262;2022-08-19T11:26:29;1.43;;;1.17;;
12838;SDS011;6486;51.034;5.262;2022-08-19T11:28:56;1.67;;;1.10;;
12838;SDS011;6486;51.034;5.262;2022-08-19T11:31:24;1.43;;;1.23;;
12838;SDS011;6486;51.034;5.262;2022-08-19T11:33:51;2.43;;;1.50;;
12838;SDS011;6486;51.034;5.262;2022-08-19T11:36:20;1.37;;;1.27;;
12838;SDS011;6486;51.034;5.262;2022-08-19T11:38:49;0.80;;;0.80;;
12838;SDS011;6486;51.034;5.262;2022-08-19T11:41:16;0.90;;;0.90;;
12838;SDS011;6486;51.034;5.262;2022-08-19T11:43:43;1.57;;;1.47;;
12838;SDS011;6486;51.034;5.262;2022-08-19T11:46:10;1.77;;;1.30;;
12838;SDS011;6486;51.034;5.262;2022-08-19T11:48:37;1.27;;;1.00;;
12838;SDS011;6486;51.034;5.262;2022-08-19T11:51:05;1.03;;;0.93;;
12838;SDS011;6486;51.034;5.262;2022-08-19T11:53:34;1.77;;;1.40;;
12838;SDS011;6486;51.034;5.262;2022-08-19T11:56:02;3.73;;;1.63;;
12838;SDS011;6486;51.034;5.262;2022-08-19T11:58:28;1.00;;;1.00;;
12838;SDS011;6486;51.034;5.262;2022-08-19T12:00:55;1.20;;;1.10;;
12838;SDS011;6486;51.034;5.262;2022-08-19T12:03:21;1.43;;;1.33;;
12838;SDS011;6486;51.034;5.262;2022-08-19T12:05:47;1.23;;;1.10;;
12838;SDS011;6486;51.034;5.262;2022-08-19T12:08:13;1.67;;;1.37;;
12838;SDS011;6486;51.034;5.262;2022-08-19T12:10:40;2.40;;;1.00;;
12838;SDS011;6486;51.034;5.262;2022-08-19T12:13:07;2.07;;;1.40;;
12838;SDS011;6486;51.034;5.262;2022-08-19T12:15:38;2.20;;;1.83;;
12838;SDS011;6486;51.034;5.262;2022-08-19T12:18:06;1.93;;;1.63;;
12838;SDS011;6486;51.034;5.262;2022-08-19T12:20:37;1.37;;;1.27;;
12838;SDS011;6486;51.034;5.262;2022-08-19T12:23:04;1.07;;;1.03;;
12838;SDS011;6486;51.034;5.262;2022-08-19T12:25:31;2.23;;;1.43;;
12838;SDS011;6486;51.034;5.262;2022-08-19T12:27:57;1.47;;;1.00;;
12838;SDS011;6486;51.034;5.262;2022-08-19T12:30:24;6.00;;;1.40;;
12838;SDS011;6486;51.034;5.262;2022-08-19T12:32:50;1.70;;;0.90;;
12838;SDS011;6486;51.034;5.262;2022-08-19T12:35:16;0.80;;;0.80;;
12838;SDS011;6486;51.034;5.262;2022-08-19T12:37:45;2.33;;;1.50;;
12838;SDS011;6486;51.034;5.262;2022-08-19T12:40:12;0.80;;;0.80;;
12838;SDS011;6486;51.034;5.262;2022-08-19T12:42:38;1.33;;;0.73;;
12838;SDS011;6486;51.034;5.262;2022-08-19T12:45:11;1.37;;;1.20;;
12838;SDS011;6486;51.034;5.262;2022-08-19T12:47:38;1.03;;;0.70;;
12838;SDS011;6486;51.034;5.262;2022-08-19T12:50:05;0.77;;;0.77;;
12838;SDS011;6486;51.034;5.262;2022-08-19T12:52:35;1.00;;;0.83;;
12838;SDS011;6486;51.034;5.262;2022-08-19T12:55:02;1.67;;;0.90;;
12838;SDS011;6486;51.034;5.262;2022-08-19T12:57:30;0.57;;;0.57;;
12838;SDS011;6486;51.034;5.262;2022-08-19T12:59:58;0.60;;;0.60;;
12838;SDS011;6486;51.034;5.262;2022-08-19T13:02:25;0.63;;;0.63;;
12838;SDS011;6486;51.034;5.262;2022-08-19T13:04:51;0.80;;;0.80;;
12838;SDS011;6486;51.034;5.262;2022-08-19T13:07:17;2.77;;;1.50;;
12838;SDS011;6486;51.034;5.262;2022-08-19T13:09:42;6.47;;;1.27;;
12838;SDS011;6486;51.034;5.262;2022-08-19T13:12:08;5.47;;;0.63;;
12838;SDS011;6486;51.034;5.262;2022-08-19T13:14:38;1.00;;;0.80;;
12838;SDS011;6486;51.034;5.262;2022-08-19T13:17:05;2.67;;;1.00;;
12838;SDS011;6486;51.034;5.262;2022-08-19T13:19:31;5.83;;;0.90;;
12838;SDS011;6486;51.034;5.262;2022-08-19T13:21:57;1.57;;;0.93;;
12838;SDS011;6486;51.034;5.262;2022-08-19T13:24:23;2.43;;;0.87;;
12838;SDS011;6486;51.034;5.262;2022-08-19T13:26:50;1.37;;;0.93;;
12838;SDS011;6486;51.034;5.262;2022-08-19T13:29:15;2.57;;;0.90;;
12838;SDS011;6486;51.034;5.262;2022-08-19T13:32:00;1.60;;;1.00;;
12838;SDS011;6486;51.034;5.262;2022-08-19T13:34:44;1.47;;;1.07;;
12838;SDS011;6486;51.034;5.262;2022-08-19T13:37:11;1.10;;;0.77;;
12838;SDS011;6486;51.034;5.262;2022-08-19T13:39:37;6.30;;;1.20;;
12838;SDS011;6486;51.034;5.262;2022-08-19T13:42:03;1.00;;;0.47;;
12838;SDS011;6486;51.034;5.262;2022-08-19T13:44:29;0.80;;;0.57;;
12838;SDS011;6486;51.034;5.262;2022-08-19T13:47:04;0.97;;;0.87;;
12838;SDS011;6486;51.034;5.262;2022-08-19T13:49:32;0.50;;;0.50;;
12838;SDS011;6486;51.034;5.262;2022-08-19T13:51:58;2.60;;;0.93;;
12838;SDS011;6486;51.034;5.262;2022-08-19T13:54:24;1.33;;;1.00;;
12838;SDS011;6486;51.034;5.262;2022-08-19T13:56:50;0.53;;;0.53;;
12838;SDS011;6486;51.034;5.262;2022-08-19T13:59:15;1.23;;;0.70;;
12838;SDS011;6486;51.034;5.262;2022-08-19T14:01:42;0.70;;;0.60;;
12838;SDS011;6486;51.034;5.262;2022-08-19T14:04:08;1.47;;;1.13;;
12838;SDS011;6486;51.034;5.262;2022-08-19T14:06:34;0.83;;;0.80;;
12838;SDS011;6486;51.034;5.262;2022-08-19T14:09:00;0.93;;;0.87;;
12838;SDS011;6486;51.034;5.262;2022-08-19T14:11:27;0.57;;;0.30;;
12838;SDS011;6486;51.034;5.262;2022-08-19T14:13:53;6.60;;;0.83;;
12838;SDS011;6486;51.034;5.262;2022-08-19T14:16:19;0.30;;;0.30;;
12838;SDS011;6486;51.034;5.262;2022-08-19T14:18:46;1.20;;;0.63;;
12838;SDS011;6486;51.034;5.262;2022-08-19T14:21:20;0.50;;;0.50;;
12838;SDS011;6486;51.034;5.262;2022-08-19T14:23:48;1.27;;;0.40;;
12838;SDS011;6486;51.034;5.262;2022-08-19T14:26:15;0.43;;;0.40;;
12838;SDS011;6486;51.034;5.262;2022-08-19T14:28:42;0.60;;;0.60;;
12838;SDS011;6486;51.034;5.262;2022-08-19T14:31:13;2.40;;;0.73;;
12838;SDS011;6486;51.034;5.262;2022-08-19T14:33:43;0.37;;;0.37;;
12838;SDS011;6486;51.034;5.262;2022-08-19T14:36:09;1.47;;;0.70;;
12838;SDS011;6486;51.034;5.262;2022-08-19T14:38:35;0.73;;;0.73;;
12838;SDS011;6486;51.034;5.262;2022-08-19T14:43:48;0.83;;;0.70;;
12838;SDS011;6486;51.034;5.262;2022-08-19T14:46:16;0.97;;;0.80;;
12838;SDS011;6486;51.034;5.262;2022-08-19T14:48:46;0.73;;;0.73;;
12838;SDS011;6486;51.034;5.262;2022-08-19T14:51:12;0.80;;;0.50;;
12838;SDS011;6486;51.034;5.262;2022-08-19T14:53:39;0.50;;;0.40;;
12838;SDS011;6486;51.034;5.262;2022-08-19T14:56:09;0.97;;;0.60;;
12838;SDS011;6486;51.034;5.262;2022-08-19T14:58:37;1.10;;;0.67;;
12838;SDS011;6486;51.034;5.262;2022-08-19T15:01:06;1.00;;;0.77;;
12838;SDS011;6486;51.034;5.262;2022-08-19T15:03:32;0.67;;;0.60;;
12838;SDS011;6486;51.034;5.262;2022-08-19T15:05:59;0.50;;;0.50;;
12838;SDS011;6486;51.034;5.262;2022-08-19T15:08:26;1.40;;;1.30;;
12838;SDS011;6486;51.034;5.262;2022-08-19T15:10:53;0.63;;;0.53;;
12838;SDS011;6486;51.034;5.262;2022-08-19T15:13:20;0.97;;;0.67;;
12838;SDS011;6486;51.034;5.262;2022-08-19T15:15:46;0.57;;;0.57;;
12838;SDS011;6486;51.034;5.262;2022-08-19T15:18:13;0.50;;;0.43;;
12838;SDS011;6486;51.034;5.262;2022-08-19T15:20:39;2.13;;;0.80;;
12838;SDS011;6486;51.034;5.262;2022-08-19T15:23:05;1.27;;;0.70;;
12838;SDS011;6486;51.034;5.262;2022-08-19T15:25:31;0.60;;;0.60;;